createdAt,value
2019-04-07T00:00:37.170Z,0.00
2019-04-07T00:01:37.179Z,0.00
2019-04-07T00:05:38.178Z,0.00
2019-04-07T00:06:37.348Z,0.00
2019-04-07T00:07:37.180Z,0.00
2019-04-07T00:08:37.640Z,0.00
2019-04-07T00:09:37.132Z,0.00
2019-04-07T00:10:36.907Z,0.00
2019-04-07T00:11:37.197Z,0.00
2019-04-07T00:12:37.023Z,0.00
2019-04-07T00:13:36.854Z,0.00
2019-04-07T00:15:36.866Z,0.00
2019-04-07T00:22:36.846Z,0.00
2019-04-07T00:23:36.930Z,0.00
2019-04-07T00:40:36.271Z,0.00
2019-04-07T00:41:36.448Z,0.00
2019-04-07T00:42:36.362Z,0.00
2019-04-07T00:43:36.369Z,0.00
2019-04-07T00:44:36.488Z,0.00
2019-04-07T00:45:36.197Z,0.00
2019-04-07T00:46:36.531Z,0.00
2019-04-07T00:47:36.226Z,0.00
2019-04-07T00:48:36.436Z,0.00
2019-04-07T00:49:36.869Z,0.00
2019-04-07T00:50:36.145Z,0.00
2019-04-07T00:51:36.450Z,0.00
2019-04-07T00:53:36.636Z,0.00
2019-04-07T00:54:35.962Z,0.00
2019-04-07T00:55:35.935Z,0.00
2019-04-07T00:57:36.312Z,0.00
2019-04-07T00:58:36.875Z,0.00
2019-04-07T00:59:36.069Z,0.00
2019-04-07T01:00:35.872Z,0.00
2019-04-07T01:01:35.969Z,0.00
2019-04-07T01:02:35.761Z,0.00
2019-04-07T01:04:36.443Z,0.00
2019-04-07T01:05:39.485Z,0.00
2019-04-07T01:06:37.496Z,0.00
2019-04-07T01:07:36.151Z,0.00
2019-04-07T01:08:36.124Z,0.00
2019-04-07T01:09:35.768Z,0.00
2019-04-07T01:10:35.618Z,0.00
2019-04-07T01:11:36.303Z,0.00
2019-04-07T01:12:35.864Z,0.00
2019-04-07T01:13:36.155Z,0.00
2019-04-07T01:14:35.540Z,0.00
2019-04-07T01:15:35.791Z,0.00
2019-04-07T01:16:35.479Z,0.00
2019-04-07T01:17:35.760Z,0.00
2019-04-07T01:18:35.593Z,0.00
2019-04-07T01:19:35.614Z,0.00
2019-04-07T01:20:35.580Z,0.00
2019-04-07T01:21:35.659Z,0.00
2019-04-07T01:22:35.354Z,0.00
2019-04-07T01:23:35.655Z,0.00
2019-04-07T01:24:35.578Z,0.00
2019-04-07T01:25:35.737Z,0.00
2019-04-07T01:26:35.270Z,0.00
2019-04-07T01:27:35.798Z,0.00
2019-04-07T01:28:35.391Z,0.00
2019-04-07T01:29:35.491Z,0.00
2019-04-07T01:30:35.489Z,0.00
2019-04-07T01:31:35.335Z,0.00
2019-04-07T01:32:35.649Z,0.00
2019-04-07T01:33:35.500Z,0.00
2019-04-07T01:34:35.173Z,0.00
2019-04-07T01:35:45.030Z,0.00
2019-04-07T01:36:35.037Z,0.00
2019-04-07T01:37:35.265Z,0.00
2019-04-07T01:39:35.019Z,0.00
2019-04-07T01:43:35.294Z,0.00
2019-04-07T01:44:35.545Z,0.00
2019-04-07T01:45:34.833Z,0.00
2019-04-07T01:46:35.431Z,0.00
2019-04-07T01:47:35.402Z,0.00
2019-04-07T01:48:34.865Z,0.00
2019-04-07T01:49:34.844Z,0.00
2019-04-07T01:50:34.844Z,0.00
2019-04-07T01:51:34.961Z,0.00
2019-04-07T01:52:34.870Z,0.00
2019-04-07T01:53:35.570Z,0.00
2019-04-07T01:54:34.936Z,0.00
2019-04-07T01:55:34.674Z,0.00
2019-04-07T01:56:34.656Z,0.00
2019-04-07T01:58:34.825Z,0.00
2019-04-07T01:59:34.521Z,0.00
2019-04-07T02:00:34.499Z,0.00
2019-04-07T02:01:34.783Z,0.00
2019-04-07T02:02:34.455Z,0.00
2019-04-07T02:03:35.675Z,0.00
2019-04-07T02:04:34.706Z,0.00
2019-04-07T02:05:34.384Z,0.00
2019-04-07T02:06:34.911Z,0.00
2019-04-07T02:07:34.746Z,0.00
2019-04-07T02:08:35.299Z,0.00
2019-04-07T02:09:34.457Z,0.00
2019-04-07T02:10:34.276Z,0.00
2019-04-07T02:11:35.037Z,0.00
2019-04-07T02:12:35.058Z,0.00
2019-04-07T02:13:34.905Z,0.00
2019-04-07T02:14:34.508Z,0.00
2019-04-07T02:15:34.474Z,0.00
2019-04-07T02:16:34.456Z,0.00
2019-04-07T02:17:34.173Z,0.00
2019-04-07T02:18:34.248Z,0.00
2019-04-07T02:19:34.463Z,0.00
2019-04-07T02:21:34.030Z,0.00
2019-04-07T02:22:34.417Z,0.00
2019-04-07T02:23:33.988Z,0.00
2019-04-07T02:24:34.450Z,0.00
2019-04-07T02:26:34.377Z,0.00
2019-04-07T02:27:34.007Z,0.00
2019-04-07T02:29:34.586Z,0.00
2019-04-07T02:30:35.184Z,0.00
2019-04-07T02:31:33.945Z,0.00
2019-04-07T02:32:34.438Z,0.00
2019-04-07T02:33:33.853Z,0.00
2019-04-07T02:35:34.557Z,0.00
2019-04-07T02:36:34.185Z,0.00
2019-04-07T02:37:33.665Z,0.00
2019-04-07T02:39:34.677Z,0.00
2019-04-07T02:40:34.318Z,0.00
2019-04-07T02:43:34.114Z,0.00
2019-04-07T02:44:33.912Z,0.00
2019-04-07T02:45:34.371Z,0.00
2019-04-07T02:46:33.609Z,0.00
2019-04-07T02:47:33.504Z,0.00
2019-04-07T02:48:33.818Z,0.00
2019-04-07T02:49:33.887Z,0.00
2019-04-07T02:50:34.772Z,0.00
2019-04-07T02:51:33.803Z,0.00
2019-04-07T02:52:33.320Z,0.00
2019-04-07T02:54:33.285Z,0.00
2019-04-07T02:55:33.631Z,0.00
2019-04-07T02:56:33.879Z,0.00
2019-04-07T02:57:33.864Z,0.00
2019-04-07T02:58:33.371Z,0.00
2019-04-07T02:59:33.478Z,0.00
2019-04-07T03:00:33.192Z,0.00
2019-04-07T03:01:33.144Z,0.00
2019-04-07T03:02:34.550Z,0.00
2019-04-07T03:03:33.172Z,0.00
2019-04-07T03:04:33.096Z,0.00
2019-04-07T03:05:33.374Z,0.00
2019-04-07T03:06:43.029Z,0.00
2019-04-07T03:07:33.033Z,0.00
2019-04-07T03:08:33.270Z,0.00
2019-04-07T03:09:33.427Z,0.00
2019-04-07T03:10:33.435Z,0.00
2019-04-07T03:11:33.208Z,0.00
2019-04-07T03:12:33.198Z,0.00
2019-04-07T03:13:33.236Z,0.00
2019-04-07T03:14:33.425Z,0.00
2019-04-07T03:15:33.101Z,0.00
2019-04-07T03:16:32.787Z,0.00
2019-04-07T03:18:33.161Z,0.00
2019-04-07T03:19:33.276Z,0.00
2019-04-07T03:20:33.090Z,0.00
2019-04-07T03:21:33.073Z,0.00
2019-04-07T03:22:32.932Z,0.00
2019-04-07T03:23:32.625Z,0.00
2019-04-07T03:24:33.557Z,0.00
2019-04-07T03:25:32.593Z,0.00
2019-04-07T03:27:32.578Z,0.00
2019-04-07T03:30:33.726Z,0.00
2019-04-07T03:31:33.011Z,0.00
2019-04-07T03:32:33.795Z,0.00
2019-04-07T03:33:34.860Z,0.00
2019-04-07T03:34:33.476Z,0.00
2019-04-07T03:35:34.122Z,0.00
2019-04-07T03:36:50.993Z,0.00
2019-04-07T03:37:38.839Z,0.00
2019-04-07T03:38:32.270Z,0.00
2019-04-07T03:39:33.349Z,0.00
2019-04-07T03:43:32.253Z,0.00
2019-04-07T03:44:32.531Z,0.00
2019-04-07T03:45:32.657Z,0.00
2019-04-07T03:46:32.612Z,0.00
2019-04-07T03:47:32.153Z,0.00
2019-04-07T03:48:32.034Z,0.00
2019-04-07T03:49:32.110Z,0.00
2019-04-07T03:50:31.997Z,0.00
2019-04-07T04:03:32.243Z,0.00
2019-04-07T04:04:32.293Z,0.00
2019-04-07T04:05:32.451Z,0.00
2019-04-07T04:06:32.287Z,0.00
2019-04-07T04:17:32.608Z,12.00
2019-04-07T04:19:31.330Z,16.00
2019-04-07T04:20:32.298Z,16.00
2019-04-07T04:21:31.599Z,20.00
2019-04-07T04:23:31.762Z,28.00
2019-04-07T04:24:31.390Z,28.00
2019-04-07T04:32:31.195Z,84.00
2019-04-07T04:33:31.147Z,96.00
2019-04-07T04:34:31.486Z,108.00
2019-04-07T04:35:32.331Z,120.00
2019-04-07T04:36:31.512Z,132.00
2019-04-07T04:40:30.839Z,196.00
2019-04-07T04:41:30.815Z,216.00
2019-04-07T04:42:31.445Z,232.00
2019-04-07T04:43:31.769Z,252.00
2019-04-07T04:44:31.728Z,272.00
2019-04-07T04:45:31.658Z,292.00
2019-04-07T04:46:30.794Z,316.00
2019-04-07T04:47:31.017Z,340.00
2019-04-07T04:53:30.864Z,496.00
2019-04-07T04:54:31.701Z,528.00
2019-04-07T04:55:30.495Z,552.00
2019-04-07T04:56:31.029Z,584.00
2019-04-07T04:57:30.554Z,612.00
2019-04-07T04:58:30.514Z,644.00
2019-04-07T04:59:31.221Z,668.00
2019-04-07T05:00:30.502Z,700.00
2019-04-07T05:01:31.030Z,732.00
2019-04-07T05:02:30.436Z,764.00
2019-04-07T05:05:30.561Z,856.00
2019-04-07T05:06:31.161Z,892.00
2019-04-07T05:07:30.557Z,924.00
2019-04-07T05:08:31.002Z,956.00
2019-04-07T05:09:41.154Z,988.00
2019-04-07T05:10:30.994Z,1020.00
2019-04-07T05:11:30.383Z,1048.00
2019-04-07T05:18:30.693Z,1284.00
2019-04-07T05:20:29.916Z,1352.00
2019-04-07T05:21:30.371Z,1384.00
2019-04-07T05:46:30.286Z,2128.00
2019-04-07T06:00:29.608Z,2504.00
2019-04-07T06:01:29.075Z,2532.00
2019-04-07T06:19:29.306Z,2948.00
2019-04-07T06:20:28.991Z,2972.00
2019-04-07T06:21:28.662Z,2996.00
2019-04-07T06:22:28.495Z,3028.00
2019-04-07T06:41:31.249Z,3452.00
2019-04-07T07:01:28.491Z,3896.00
2019-04-07T07:02:29.518Z,3916.00
2019-04-07T07:03:28.242Z,3936.00
2019-04-07T07:04:27.910Z,3960.00
2019-04-07T07:05:27.864Z,3972.00
2019-04-07T07:07:28.136Z,3972.00
2019-04-07T07:08:28.330Z,3984.00
2019-04-07T07:09:27.846Z,3996.00
2019-04-07T07:10:30.258Z,4024.00
2019-04-07T07:11:30.056Z,4044.00
2019-04-07T07:15:28.267Z,4120.00
2019-04-07T07:16:28.661Z,4140.00
2019-04-07T07:17:27.960Z,4160.00
2019-04-07T07:19:28.563Z,4204.00
2019-04-07T07:42:27.717Z,4864.00
2019-04-07T07:43:29.248Z,4888.00
2019-04-07T07:49:28.808Z,4992.00
2019-04-07T07:50:26.739Z,5020.00
2019-04-07T07:51:27.012Z,5044.00
2019-04-07T07:52:26.914Z,5076.00
2019-04-07T07:53:28.469Z,5108.00
2019-04-07T07:54:28.234Z,5144.00
2019-04-07T07:55:27.423Z,5184.00
2019-04-07T07:56:26.840Z,5220.00
2019-04-07T08:00:26.655Z,5348.00
2019-04-07T08:04:27.684Z,5476.00
2019-04-07T08:05:29.899Z,5500.00
2019-04-07T08:06:26.784Z,5544.00
2019-04-07T08:09:27.150Z,5624.00
2019-04-07T08:10:27.566Z,5652.00
2019-04-07T08:16:29.482Z,5876.00
2019-04-07T08:19:29.365Z,5940.00
2019-04-07T08:20:27.433Z,5948.00
2019-04-07T08:21:26.954Z,5988.00
2019-04-07T08:22:32.516Z,6004.00
2019-04-07T08:23:26.305Z,6052.00
2019-04-07T08:24:26.261Z,6076.00
2019-04-07T08:29:26.958Z,6268.00
2019-04-07T08:41:26.725Z,6772.00
2019-04-07T08:43:26.502Z,6852.00
2019-04-07T08:44:28.687Z,6888.00
2019-04-07T08:45:28.689Z,6960.00
2019-04-07T08:46:26.502Z,7004.00
2019-04-07T08:47:26.090Z,7056.00
2019-04-07T08:48:26.786Z,7096.00
2019-04-07T08:49:25.959Z,7136.00
2019-04-07T08:50:28.552Z,7188.00
2019-04-07T08:51:29.386Z,7252.00
2019-04-07T08:52:26.093Z,7312.00
2019-04-07T08:55:25.909Z,7448.00
2019-04-07T08:56:26.841Z,7500.00
2019-04-07T08:57:29.288Z,7528.00
2019-04-07T08:58:29.711Z,7576.00
2019-04-07T09:08:26.198Z,8104.00
2019-04-07T09:09:34.168Z,8148.00
2019-04-07T09:10:25.987Z,8200.00
2019-04-07T09:11:25.761Z,8240.00
2019-04-07T09:16:25.877Z,8484.00
2019-04-07T09:17:32.128Z,8516.00
2019-04-07T09:18:26.513Z,8532.00
2019-04-07T09:20:25.670Z,8768.00
2019-04-07T09:21:37.291Z,8780.00
2019-04-07T09:23:27.504Z,8824.00
2019-04-07T09:24:29.958Z,8908.00
2019-04-07T09:25:26.145Z,8980.00
2019-04-07T09:27:25.814Z,9040.00
2019-04-07T09:28:26.490Z,9144.00
2019-04-07T09:29:27.981Z,9184.00
2019-04-07T09:30:26.218Z,9116.00
2019-04-07T09:31:25.613Z,9204.00
2019-04-07T09:32:25.611Z,9320.00
2019-04-07T09:38:26.474Z,9716.00
2019-04-07T09:39:25.512Z,9928.00
2019-04-07T09:40:25.506Z,9984.00
2019-04-07T09:41:27.727Z,9952.00
2019-04-07T09:42:25.904Z,10012.00
2019-04-07T09:43:26.181Z,10048.00
2019-04-07T09:44:25.565Z,10292.00
2019-04-07T09:45:25.510Z,10652.00
2019-04-07T09:46:26.411Z,10476.00
2019-04-07T09:52:25.408Z,10948.00
2019-04-07T09:53:25.713Z,10908.00
2019-04-07T09:54:25.787Z,10772.00
2019-04-07T09:55:26.778Z,10532.00
2019-04-07T09:56:29.250Z,10844.00
2019-04-07T09:57:25.966Z,10852.00
2019-04-07T09:58:26.156Z,10936.00
2019-04-07T09:59:25.703Z,10884.00
2019-04-07T10:00:25.377Z,10820.00
2019-04-07T10:01:28.035Z,10956.00
2019-04-07T10:14:25.845Z,12040.00
2019-04-07T10:15:25.609Z,12068.00
2019-04-07T10:16:25.852Z,12176.00
2019-04-07T10:17:26.197Z,12280.00
2019-04-07T10:18:25.278Z,12508.00
2019-04-07T10:24:25.875Z,13144.00
2019-04-07T10:25:27.693Z,12932.00
2019-04-07T10:26:25.695Z,13388.00
2019-04-07T10:27:25.179Z,13540.00
2019-04-07T10:28:25.546Z,13652.00
2019-04-07T10:29:25.438Z,13804.00
2019-04-07T10:30:25.995Z,14064.00
2019-04-07T10:31:25.175Z,14364.00
2019-04-07T10:32:26.746Z,14416.00
2019-04-07T10:33:25.137Z,14560.00
2019-04-07T10:34:25.907Z,14680.00
2019-04-07T10:38:25.788Z,15400.00
2019-04-07T10:39:25.199Z,15440.00
2019-04-07T10:40:25.444Z,15516.00
2019-04-07T10:41:25.084Z,15956.00
2019-04-07T10:42:25.157Z,16144.00
2019-04-07T10:43:25.145Z,16184.00
2019-04-07T10:44:26.018Z,16864.00
2019-04-07T10:46:25.886Z,18176.00
2019-04-07T10:47:25.596Z,18752.00
2019-04-07T10:48:25.959Z,19712.00
2019-04-07T10:49:25.042Z,25632.00
2019-04-07T10:50:25.687Z,39552.00
2019-04-07T10:51:25.402Z,51680.00
2019-04-07T10:52:25.025Z,59200.00
2019-04-07T10:53:25.158Z,57184.00
2019-04-07T10:54:25.189Z,50592.00
2019-04-07T10:55:25.007Z,52064.00
2019-04-07T10:56:25.499Z,54496.00
2019-04-07T10:57:24.993Z,53152.00
2019-04-07T10:58:25.397Z,51776.00
2019-04-07T10:59:25.631Z,51744.00
2019-04-07T11:00:25.844Z,52992.00
2019-04-07T11:01:25.537Z,53600.00
2019-04-07T11:02:25.778Z,51648.00
2019-04-07T11:03:24.973Z,50400.00
2019-04-07T11:04:24.965Z,53472.00
2019-04-07T11:10:34.571Z,56544.00
2019-04-07T11:11:24.940Z,55904.00
2019-04-07T11:13:24.945Z,53792.00
2019-04-07T11:14:25.112Z,55552.00
2019-04-07T11:15:24.964Z,53536.00
2019-04-07T11:16:26.278Z,48864.00
2019-04-07T11:17:25.388Z,45760.00
2019-04-07T11:18:25.317Z,43776.00
2019-04-07T11:28:27.389Z,21728.00
2019-04-07T11:30:25.535Z,21056.00
2019-04-07T11:31:25.604Z,20896.00
2019-04-07T11:32:24.869Z,20704.00
2019-04-07T11:33:24.958Z,20736.00
2019-04-07T11:34:24.859Z,20608.00
2019-04-07T11:35:27.428Z,20544.00
2019-04-07T11:36:25.532Z,20512.00
2019-04-07T11:37:25.358Z,20288.00
2019-04-07T11:38:25.597Z,20160.00
2019-04-07T11:41:27.333Z,19808.00
2019-04-07T11:42:25.123Z,19936.00
2019-04-07T11:43:25.466Z,19712.00
2019-04-07T11:44:24.827Z,19776.00
2019-04-07T11:45:25.387Z,19808.00
2019-04-07T11:46:24.833Z,19936.00
2019-04-07T11:54:25.198Z,19456.00
2019-04-07T11:55:26.947Z,19328.00
2019-04-07T11:56:25.071Z,19424.00
2019-04-07T11:57:24.833Z,19456.00
2019-04-07T11:58:31.436Z,19424.00
2019-04-07T11:59:24.825Z,19296.00
2019-04-07T12:00:25.086Z,19584.00
2019-04-07T12:01:25.990Z,19456.00
2019-04-07T12:02:24.749Z,19328.00
2019-04-07T12:03:27.543Z,19104.00
2019-04-07T12:04:25.186Z,19328.00
2019-04-07T12:05:25.096Z,19232.00
2019-04-07T12:06:25.511Z,19232.00
2019-04-07T12:07:25.115Z,19296.00
2019-04-07T12:09:25.808Z,19296.00
2019-04-07T12:10:25.682Z,19168.00
2019-04-07T12:12:24.719Z,18976.00
2019-04-07T12:15:26.947Z,18784.00
2019-04-07T12:16:27.729Z,18784.00
2019-04-07T12:18:24.808Z,18720.00
2019-04-07T12:19:24.913Z,18720.00
2019-04-07T12:20:26.871Z,18784.00
2019-04-07T12:21:25.801Z,18784.00
2019-04-07T12:22:26.118Z,18816.00
2019-04-07T12:23:27.320Z,18816.00
2019-04-07T12:24:27.357Z,18816.00
2019-04-07T12:26:24.819Z,18656.00
2019-04-07T12:27:24.680Z,18816.00
2019-04-07T12:28:24.721Z,18880.00
2019-04-07T12:30:25.253Z,18816.00
2019-04-07T12:32:24.953Z,18688.00
2019-04-07T12:33:25.301Z,18656.00
2019-04-07T12:34:25.447Z,18560.00
2019-04-07T12:35:25.414Z,18656.00
2019-04-07T12:36:28.845Z,18304.00
2019-04-07T12:37:24.947Z,18304.00
2019-04-07T12:38:25.271Z,18304.00
2019-04-07T12:39:25.585Z,18432.00
2019-04-07T12:40:24.716Z,18528.00
2019-04-07T12:41:24.641Z,18432.00
2019-04-07T12:42:24.646Z,18272.00
2019-04-07T12:43:24.975Z,18336.00
2019-04-07T12:44:25.390Z,18272.00
2019-04-07T12:45:25.304Z,18176.00
2019-04-07T12:46:24.716Z,18112.00
2019-04-07T12:49:25.368Z,17984.00
2019-04-07T12:50:25.256Z,18112.00
2019-04-07T12:51:24.948Z,17984.00
2019-04-07T12:53:25.156Z,17792.00
2019-04-07T12:55:25.147Z,17792.00
2019-04-07T12:56:25.263Z,17664.00
2019-04-07T12:58:26.599Z,17472.00
2019-04-07T12:59:24.575Z,17440.00
2019-04-07T13:00:25.158Z,17184.00
2019-04-07T13:01:24.995Z,17344.00
2019-04-07T13:02:25.749Z,17408.00
2019-04-07T13:03:25.365Z,17344.00
2019-04-07T13:04:25.568Z,17280.00
2019-04-07T13:05:24.693Z,17280.00
2019-04-07T13:10:25.401Z,16896.00
2019-04-07T13:11:31.160Z,16672.00
2019-04-07T13:13:30.212Z,16512.00
2019-04-07T13:14:25.762Z,16224.00
2019-04-07T13:15:24.884Z,16288.00
2019-04-07T13:16:26.335Z,16128.00
2019-04-07T13:17:24.947Z,16128.00
2019-04-07T13:18:25.347Z,16000.00
2019-04-07T13:19:25.284Z,15968.00
2019-04-07T13:20:25.178Z,16032.00
2019-04-07T13:22:25.073Z,15776.00
2019-04-07T13:23:24.684Z,15724.00
2019-04-07T13:25:25.135Z,15544.00
2019-04-07T13:26:30.266Z,15392.00
2019-04-07T13:32:25.755Z,14952.00
2019-04-07T13:33:28.339Z,15004.00
2019-04-07T13:40:25.268Z,14780.00
2019-04-07T13:41:36.694Z,14744.00
2019-04-07T13:42:29.541Z,14516.00
2019-04-07T13:43:24.468Z,14404.00
2019-04-07T13:44:24.437Z,14176.00
2019-04-07T13:45:24.851Z,14132.00
2019-04-07T13:46:31.863Z,14152.00
2019-04-07T13:53:27.032Z,13832.00
2019-04-07T14:00:25.233Z,13388.00
2019-04-07T14:01:24.644Z,13480.00
2019-04-07T14:02:28.788Z,13564.00
2019-04-07T14:03:25.236Z,13636.00
2019-04-07T14:04:25.153Z,13624.00
2019-04-07T14:05:26.193Z,13632.00
2019-04-07T14:06:25.355Z,13836.00
2019-04-07T14:07:25.157Z,14300.00
2019-04-07T14:09:24.737Z,25440.00
2019-04-07T14:10:25.583Z,32000.00
2019-04-07T14:11:25.078Z,34432.00
2019-04-07T14:24:25.152Z,18816.00
2019-04-07T14:25:24.590Z,22304.00
2019-04-07T14:26:24.711Z,19328.00
2019-04-07T14:28:25.540Z,13104.00
2019-04-07T14:30:25.117Z,12732.00
2019-04-07T14:31:25.081Z,12832.00
2019-04-07T14:32:24.403Z,12692.00
2019-04-07T14:33:24.289Z,12716.00
2019-04-07T14:35:24.791Z,13212.00
2019-04-07T14:36:25.008Z,16992.00
2019-04-07T14:42:25.258Z,26784.00
2019-04-07T14:43:24.735Z,22528.00
2019-04-07T14:45:24.389Z,13576.00
2019-04-07T14:47:25.028Z,12972.00
2019-04-07T14:49:27.308Z,13044.00
2019-04-07T14:50:24.443Z,13032.00
2019-04-07T14:51:24.156Z,12956.00
2019-04-07T14:52:25.095Z,12964.00
2019-04-07T14:53:24.345Z,12936.00
2019-04-07T14:54:24.528Z,13128.00
2019-04-07T14:55:24.839Z,14568.00
2019-04-07T14:56:24.203Z,17280.00
2019-04-07T14:57:24.450Z,19168.00
2019-04-07T14:58:24.252Z,19232.00
2019-04-07T14:59:25.476Z,17472.00
2019-04-07T15:00:26.929Z,14836.00
2019-04-07T15:01:24.419Z,12916.00
2019-04-07T15:02:24.754Z,12032.00
2019-04-07T15:03:24.482Z,11864.00
2019-04-07T15:04:24.794Z,11752.00
2019-04-07T15:05:25.407Z,11700.00
2019-04-07T15:07:24.747Z,11580.00
2019-04-07T15:08:24.757Z,11532.00
2019-04-07T15:09:25.052Z,11444.00
2019-04-07T15:10:24.452Z,11464.00
2019-04-07T15:11:24.967Z,11472.00
2019-04-07T15:12:26.094Z,11412.00
2019-04-07T15:13:27.962Z,11360.00
2019-04-07T15:14:24.140Z,11288.00
2019-04-07T15:15:24.779Z,10296.00
2019-04-07T15:16:24.140Z,10100.00
2019-04-07T15:17:24.260Z,11028.00
2019-04-07T15:18:24.144Z,10892.00
2019-04-07T15:19:25.324Z,10864.00
2019-04-07T15:21:24.029Z,10796.00
2019-04-07T15:22:28.465Z,10772.00
2019-04-07T15:24:24.448Z,10832.00
2019-04-07T15:26:24.977Z,10804.00
2019-04-07T15:27:25.170Z,10768.00
2019-04-07T15:30:25.383Z,10444.00
2019-04-07T15:31:24.959Z,10352.00
2019-04-07T15:32:28.501Z,10280.00
2019-04-07T15:33:24.340Z,10172.00
2019-04-07T15:37:25.130Z,10316.00
2019-04-07T15:41:24.312Z,12028.00
2019-04-07T15:42:35.844Z,12256.00
2019-04-07T15:45:25.527Z,12884.00
2019-04-07T15:46:25.622Z,12832.00
2019-04-07T15:47:25.458Z,12616.00
2019-04-07T15:48:27.116Z,11864.00
2019-04-07T15:53:24.513Z,16960.00
2019-04-07T15:54:27.497Z,18272.00
2019-04-07T15:56:24.125Z,23296.00
2019-04-07T15:58:26.752Z,28608.00
2019-04-07T16:00:25.778Z,16288.00
2019-04-07T16:01:24.896Z,14448.00
2019-04-07T16:04:27.846Z,12032.00
2019-04-07T16:05:23.822Z,11296.00
2019-04-07T16:06:23.742Z,10556.00
2019-04-07T16:07:23.721Z,9616.00
2019-04-07T16:08:26.672Z,8760.00
2019-04-07T16:09:36.098Z,8380.00
2019-04-07T16:10:24.753Z,8156.00
2019-04-07T16:11:27.159Z,7920.00
2019-04-07T16:12:24.097Z,7776.00
2019-04-07T16:13:23.899Z,7636.00
2019-04-07T16:14:24.129Z,7500.00
2019-04-07T16:15:23.686Z,7408.00
2019-04-07T16:18:23.924Z,7060.00
2019-04-07T16:19:34.907Z,6948.00
2019-04-07T16:20:26.285Z,6852.00
2019-04-07T16:21:24.133Z,6740.00
2019-04-07T16:22:24.531Z,6604.00
2019-04-07T16:23:23.586Z,6444.00
2019-04-07T16:24:24.502Z,6168.00
2019-04-07T16:26:23.966Z,5636.00
2019-04-07T16:27:23.972Z,5500.00
2019-04-07T16:28:23.565Z,5432.00
2019-04-07T16:29:23.657Z,5448.00
2019-04-07T16:31:25.434Z,5480.00
2019-04-07T16:32:24.178Z,5440.00
2019-04-07T16:33:23.533Z,5360.00
2019-04-07T16:34:23.529Z,5232.00
2019-04-07T16:35:23.533Z,5120.00
2019-04-07T16:38:25.418Z,4904.00
2019-04-07T16:39:23.577Z,4832.00
2019-04-07T16:40:23.859Z,4740.00
2019-04-07T16:42:23.416Z,4564.00
2019-04-07T16:43:24.145Z,4468.00
2019-04-07T16:44:24.509Z,4376.00
2019-04-07T16:46:24.700Z,4204.00
2019-04-07T16:47:25.981Z,4120.00
2019-04-07T16:48:23.422Z,4036.00
2019-04-07T16:49:23.811Z,3956.00
2019-04-07T16:50:23.638Z,3872.00
2019-04-07T16:51:26.537Z,3788.00
2019-04-07T16:52:23.415Z,3708.00
2019-04-07T16:53:23.722Z,3636.00
2019-04-07T16:54:24.532Z,3548.00
2019-04-07T16:55:23.694Z,3468.00
2019-04-07T16:57:28.250Z,3328.00
2019-04-07T16:58:25.141Z,3264.00
2019-04-07T17:00:24.824Z,3140.00
2019-04-07T17:01:25.242Z,3080.00
2019-04-07T17:05:25.422Z,2800.00
2019-04-07T17:07:24.468Z,2684.00
2019-04-07T17:09:27.825Z,2560.00
2019-04-07T17:12:23.932Z,2360.00
2019-04-07T17:13:31.458Z,2300.00
2019-04-07T17:14:26.807Z,2244.00
2019-04-07T17:17:25.036Z,2072.00
2019-04-07T17:29:23.536Z,1208.00
2019-04-07T17:30:25.324Z,1136.00
2019-04-07T17:31:23.925Z,1072.00
2019-04-07T17:32:24.227Z,1000.00
2019-04-07T17:33:23.301Z,936.00
2019-04-07T17:34:23.032Z,880.00
2019-04-07T17:35:23.247Z,832.00
2019-04-07T17:36:23.994Z,800.00
2019-04-07T17:37:25.904Z,764.00
2019-04-07T17:38:22.885Z,736.00
2019-04-07T17:39:23.944Z,708.00
2019-04-07T17:40:24.587Z,680.00
2019-04-07T17:41:23.489Z,656.00
2019-04-07T17:46:25.833Z,548.00
2019-04-07T17:47:23.425Z,516.00
2019-04-07T17:49:26.052Z,460.00
2019-04-07T17:50:26.099Z,436.00
2019-04-07T17:51:23.915Z,408.00
2019-04-07T17:52:24.612Z,384.00
2019-04-07T17:53:23.065Z,360.00
2019-04-07T17:55:27.995Z,316.00
2019-04-07T17:56:27.239Z,292.00
2019-04-07T17:57:22.682Z,276.00
2019-04-07T17:58:22.568Z,256.00
2019-04-07T17:59:22.639Z,236.00
2019-04-07T18:00:22.556Z,220.00
2019-04-07T18:01:24.720Z,200.00
2019-04-07T18:02:26.588Z,184.00
2019-04-07T18:03:22.498Z,168.00
2019-04-07T18:04:23.005Z,156.00
2019-04-07T18:05:25.888Z,140.00
2019-04-07T18:06:22.471Z,124.00
2019-04-07T18:08:22.790Z,104.00
2019-04-07T18:09:23.578Z,92.00
2019-04-07T18:10:23.856Z,80.00
2019-04-07T18:11:23.176Z,72.00
2019-04-07T18:12:23.918Z,64.00
2019-04-07T18:13:24.858Z,56.00
2019-04-07T18:14:22.663Z,52.00
2019-04-07T18:15:23.116Z,44.00
2019-04-07T18:16:22.509Z,40.00
2019-04-07T18:17:22.625Z,36.00
2019-04-07T18:18:25.039Z,28.00
2019-04-07T18:19:22.278Z,24.00
2019-04-07T18:21:23.160Z,16.00
2019-04-07T18:22:23.642Z,16.00
2019-04-07T18:23:24.117Z,12.00
2019-04-07T18:24:22.723Z,12.00
2019-04-07T18:25:22.760Z,8.00
2019-04-07T18:26:22.148Z,8.00
2019-04-07T18:27:23.244Z,8.00
2019-04-07T18:28:25.884Z,8.00
2019-04-07T18:29:25.718Z,8.00
2019-04-07T18:30:22.260Z,4.00
2019-04-07T18:31:22.185Z,0.00
2019-04-07T18:32:22.112Z,4.00
2019-04-07T18:33:22.798Z,0.00
2019-04-07T18:34:25.103Z,0.00
2019-04-07T18:35:22.658Z,4.00
2019-04-07T18:36:22.456Z,4.00
2019-04-07T18:37:24.042Z,0.00
2019-04-07T18:38:22.849Z,0.00
2019-04-07T18:39:23.043Z,0.00
2019-04-07T18:40:26.276Z,0.00
2019-04-07T18:41:21.940Z,0.00
2019-04-07T18:42:22.068Z,0.00
2019-04-07T18:43:21.880Z,0.00
2019-04-07T18:44:22.842Z,0.00
2019-04-07T18:45:21.881Z,0.00
2019-04-07T18:46:22.542Z,0.00
2019-04-07T18:47:23.975Z,0.00
2019-04-07T18:48:22.740Z,0.00
2019-04-07T18:49:21.781Z,0.00
2019-04-07T18:50:21.974Z,0.00
2019-04-07T18:51:21.966Z,0.00
2019-04-07T18:52:23.037Z,0.00
2019-04-07T18:53:22.111Z,0.00
2019-04-07T18:54:22.705Z,0.00
2019-04-07T18:55:22.430Z,0.00
2019-04-07T18:56:22.557Z,0.00
2019-04-07T18:57:22.701Z,0.00
2019-04-07T18:59:21.784Z,0.00
2019-04-07T19:00:21.624Z,0.00
2019-04-07T19:01:22.289Z,0.00
2019-04-07T19:02:21.722Z,0.00
2019-04-07T19:03:22.677Z,0.00
2019-04-07T19:04:25.151Z,0.00
2019-04-07T19:05:22.216Z,0.00
2019-04-07T19:06:21.483Z,0.00
2019-04-07T19:07:22.256Z,0.00
2019-04-07T19:08:21.728Z,0.00
2019-04-07T19:09:21.435Z,0.00
2019-04-07T19:10:25.125Z,0.00
2019-04-07T19:11:24.673Z,0.00
2019-04-07T19:12:23.014Z,0.00
2019-04-07T19:13:26.735Z,0.00
2019-04-07T19:14:37.916Z,0.00
2019-04-07T19:15:23.050Z,0.00
2019-04-07T19:16:22.078Z,0.00
2019-04-07T19:17:24.279Z,0.00
2019-04-07T19:18:21.292Z,0.00
2019-04-07T19:19:21.410Z,0.00
2019-04-07T19:20:21.266Z,0.00
2019-04-07T19:22:21.604Z,0.00
2019-04-07T19:23:24.236Z,0.00
2019-04-07T19:24:21.163Z,0.00
2019-04-07T19:25:21.566Z,0.00
2019-04-07T19:26:21.178Z,0.00
2019-04-07T19:27:22.029Z,0.00
2019-04-07T19:28:21.345Z,0.00
2019-04-07T19:29:21.684Z,0.00
2019-04-07T19:30:21.103Z,0.00
2019-04-07T19:31:21.651Z,0.00
2019-04-07T19:33:23.925Z,0.00
2019-04-07T19:34:21.311Z,0.00
2019-04-07T19:35:21.760Z,0.00
2019-04-07T19:36:21.384Z,0.00
2019-04-07T19:38:22.433Z,0.00
2019-04-07T19:39:23.610Z,0.00
2019-04-07T19:41:21.251Z,0.00
2019-04-07T19:43:20.921Z,0.00
2019-04-07T19:44:32.735Z,0.00
2019-04-07T19:45:22.892Z,0.00
2019-04-07T19:46:21.092Z,0.00
2019-04-07T19:48:20.993Z,0.00
2019-04-07T19:49:22.943Z,0.00
2019-04-07T19:50:22.685Z,0.00
2019-04-07T19:51:20.671Z,0.00
2019-04-07T19:52:20.983Z,0.00
2019-04-07T19:53:20.635Z,0.00
2019-04-07T19:54:21.648Z,0.00
2019-04-07T19:55:25.628Z,0.00
2019-04-07T19:56:20.946Z,0.00
2019-04-07T19:57:23.362Z,0.00
2019-04-07T19:58:21.748Z,0.00
2019-04-07T19:59:20.534Z,0.00
2019-04-07T20:00:24.765Z,0.00
2019-04-07T20:01:20.774Z,0.00
2019-04-07T20:02:20.470Z,0.00
2019-04-07T20:03:20.448Z,0.00
2019-04-07T20:04:20.578Z,0.00
2019-04-07T20:05:21.081Z,0.00
2019-04-07T20:06:23.967Z,0.00
2019-04-07T20:07:20.370Z,0.00